Time;durP1;ratioP1;P1;durP2;ratioP2;P2;SDS_P1;SDS_P2;PMS_P1;PMS_P2;Temp;Humidity;BMP_temperature;BMP_pressure;BME280_temperature;BME280_humidity;BME280_pressure;Samples;Min_cycle;Max_cycle;Signal;HPM_P1;HPM_P2
2022/12/05 00:00:03;;;;;;;;;;;18.70;40.80;;;;;;5090306;28;19998;-62
2022/12/05 00:02:30;;;;;;;;;;;18.70;40.80;;;;;;5092673;28;19927;-64
2022/12/05 00:04:57;;;;;;;;;;;18.70;40.80;;;;;;5092754;28;19924;-64
2022/12/05 00:07:24;;;;;;;;;;;18.70;40.80;;;;;;5091678;28;19928;-63
2022/12/05 00:09:51;;;;;;;;;;;18.70;40.80;;;;;;5107440;28;20332;-63
2022/12/05 00:12:17;;;;;;;;;;;18.80;40.90;;;;;;5089920;28;19946;-61
2022/12/05 00:14:46;;;;;;;;;;;18.70;40.80;;;;;;5089565;28;19927;-62
2022/12/05 00:17:12;;;;;;;;;;;18.70;40.80;;;;;;5090659;28;19974;-63
2022/12/05 00:19:39;;;;;;;;;;;18.70;40.80;;;;;;5088141;28;20277;-62
2022/12/05 00:22:06;;;;;;;;;;;18.70;40.80;;;;;;5092655;28;19927;-62
2022/12/05 00:24:33;;;;;;;;;;;18.70;40.80;;;;;;5108056;28;19927;-63
2022/12/05 00:26:59;;;;;;;;;;;18.80;40.90;;;;;;5110120;28;19920;-61
2022/12/05 00:29:26;;;;;;;;;;;18.70;40.80;;;;;;5091944;28;20388;-61
2022/12/05 00:31:54;;;;;;;;;;;18.80;40.90;;;;;;5091340;28;19955;-62
2022/12/05 00:34:21;;;;;;;;;;;18.70;40.80;;;;;;5092046;28;19920;-63
2022/12/05 00:36:48;;;;;;;;;;;18.80;40.90;;;;;;5088891;28;20020;-64
2022/12/05 00:39:15;;;;;;;;;;;18.80;41.00;;;;;;5090001;28;19920;-62
2022/12/05 00:41:42;;;;;;;;;;;18.80;40.90;;;;;;5109673;28;19920;-62
2022/12/05 00:44:08;;;;;;;;;;;18.80;40.90;;;;;;5091497;28;20139;-63
2022/12/05 00:46:35;;;;;;;;;;;18.80;41.00;;;;;;5110698;28;19965;-64
2022/12/05 00:49:04;;;;;;;;;;;18.80;41.00;;;;;;5106988;28;19939;-61
2022/12/05 00:51:31;;;;;;;;;;;18.80;40.90;;;;;;5089051;28;19919;-62
2022/12/05 00:53:58;;;;;;;;;;;18.80;41.00;;;;;;5090726;28;19919;-62
2022/12/05 00:56:25;;;;;;;;;;;18.80;41.00;;;;;;5091614;28;19973;-62
2022/12/05 00:58:53;;;;;;;;;;;18.80;40.90;;;;;;5086045;28;20358;-63
2022/12/05 01:01:20;;;;;;;;;;;18.80;40.90;;;;;;5107257;28;19931;-61
2022/12/05 01:03:47;;;;;;;;;;;18.80;40.90;;;;;;5091954;28;19920;-60
2022/12/05 01:06:15;;;;;;;;;;;18.80;41.00;;;;;;5087300;28;19927;-64
2022/12/05 01:08:42;;;;;;;;;;;18.80;41.00;;;;;;5091185;28;20357;-63
2022/12/05 01:11:09;;;;;;;;;;;18.80;41.00;;;;;;5087685;28;19923;-63
2022/12/05 01:13:36;;;;;;;;;;;18.80;41.00;;;;;;5090091;28;19926;-63
2022/12/05 01:16:03;;;;;;;;;;;18.80;41.00;;;;;;5109803;28;19920;-63
2022/12/05 01:18:29;;;;;;;;;;;18.80;41.00;;;;;;5105195;28;19942;-64
2022/12/05 01:20:56;;;;;;;;;;;18.80;41.00;;;;;;5109501;28;20367;-62
2022/12/05 01:23:24;;;;;;;;;;;18.80;41.00;;;;;;5108443;28;19919;-62
2022/12/05 01:25:51;;;;;;;;;;;18.80;41.00;;;;;;5091258;28;19919;-62
2022/12/05 01:28:20;;;;;;;;;;;18.80;41.00;;;;;;5110107;28;19928;-63
2022/12/05 01:30:47;;;;;;;;;;;18.80;41.00;;;;;;5091325;28;20344;-63
2022/12/05 01:33:14;;;;;;;;;;;18.80;41.00;;;;;;5091119;28;19923;-64
2022/12/05 01:35:41;;;;;;;;;;;18.80;41.00;;;;;;5089378;28;19924;-64
2022/12/05 01:38:08;;;;;;;;;;;18.80;41.00;;;;;;5090511;28;19919;-63
2022/12/05 01:40:36;;;;;;;;;;;18.80;41.00;;;;;;5090673;28;19923;-63
2022/12/05 01:43:03;;;;;;;;;;;18.80;41.00;;;;;;5108071;28;19927;-65
2022/12/05 01:45:31;;;;;;;;;;;18.80;41.00;;;;;;5090658;28;19950;-62
2022/12/05 01:47:58;;;;;;;;;;;18.80;41.00;;;;;;5091510;28;19927;-63
2022/12/05 01:50:25;;;;;;;;;;;18.80;41.00;;;;;;5090096;28;19926;-63
2022/12/05 01:52:51;;;;;;;;;;;18.80;41.00;;;;;;5109512;28;19943;-63
2022/12/05 01:55:18;;;;;;;;;;;18.80;41.00;;;;;;5109191;28;19926;-62
2022/12/05 01:57:47;;;;;;;;;;;18.80;41.00;;;;;;5072325;28;20384;-63
2022/12/05 02:00:14;;;;;;;;;;;18.80;41.00;;;;;;5106964;28;19973;-63
2022/12/05 02:02:41;;;;;;;;;;;18.80;41.00;;;;;;5089634;28;19977;-64
2022/12/05 02:05:09;;;;;;;;;;;18.80;41.00;;;;;;5091341;28;19992;-62
2022/12/05 02:07:37;;;;;;;;;;;18.80;41.00;;;;;;5089841;28;19969;-63
2022/12/05 02:10:05;;;;;;;;;;;18.80;41.00;;;;;;5090769;28;20395;-65
2022/12/05 02:12:31;;;;;;;;;;;18.80;41.00;;;;;;5086671;28;20273;-62
2022/12/05 02:15:22;;;;;;;;;;;18.80;41.00;;;;;;5090846;28;19920;-62
2022/12/05 02:17:53;;;;;;;;;;;18.80;41.00;;;;;;5108970;28;20317;-65
2022/12/05 02:20:24;;;;;;;;;;;18.80;41.00;;;;;;5089320;28;19927;-64
2022/12/05 02:23:09;;;;;;;;;;;18.80;41.00;;;;;;5089449;28;19932;-64
2022/12/05 02:25:40;;;;;;;;;;;18.80;41.00;;;;;;5087627;28;19924;-63
2022/12/05 02:28:15;;;;;;;;;;;18.80;41.00;;;;;;5091054;28;19962;-63
2022/12/05 02:30:43;;;;;;;;;;;18.80;41.00;;;;;;5089191;28;19946;-62
2022/12/05 02:33:11;;;;;;;;;;;18.80;41.00;;;;;;5091760;28;19923;-63
2022/12/05 02:35:41;;;;;;;;;;;18.80;41.00;;;;;;5111682;28;19927;-63
2022/12/05 02:38:13;;;;;;;;;;;18.80;41.00;;;;;;5094252;28;19920;-63
2022/12/05 02:40:42;;;;;;;;;;;18.80;41.00;;;;;;5091746;28;19924;-67
2022/12/05 02:43:10;;;;;;;;;;;18.80;41.00;;;;;;5091893;28;19972;-62
2022/12/05 02:45:37;;;;;;;;;;;18.80;41.00;;;;;;5091920;28;19920;-62
2022/12/05 02:48:05;;;;;;;;;;;18.80;41.00;;;;;;5094452;28;19920;-64
2022/12/05 02:50:33;;;;;;;;;;;18.80;41.00;;;;;;5094166;28;19919;-63
2022/12/05 02:53:00;;;;;;;;;;;18.80;41.00;;;;;;5089099;28;20370;-62
2022/12/05 02:55:27;;;;;;;;;;;18.80;41.00;;;;;;5111622;28;20342;-61
2022/12/05 02:57:54;;;;;;;;;;;18.80;41.00;;;;;;5092116;28;19920;-63
2022/12/05 03:00:21;;;;;;;;;;;18.80;41.00;;;;;;5093674;28;19920;-62
2022/12/05 03:02:48;;;;;;;;;;;18.80;41.00;;;;;;5090090;28;19930;-63
2022/12/05 03:05:18;;;;;;;;;;;18.80;41.60;;;;;;5110265;28;19926;-63
2022/12/05 03:07:45;;;;;;;;;;;18.80;41.00;;;;;;5093923;28;19920;-63
2022/12/05 03:10:12;;;;;;;;;;;18.80;41.00;;;;;;5093498;28;19919;-64
2022/12/05 03:12:41;;;;;;;;;;;18.80;41.00;;;;;;5110987;28;19947;-61
2022/12/05 03:15:08;;;;;;;;;;;18.80;41.10;;;;;;5093191;28;19923;-63
2022/12/05 03:17:36;;;;;;;;;;;18.80;41.00;;;;;;5088555;28;19976;-63
2022/12/05 03:20:04;;;;;;;;;;;18.80;41.00;;;;;;5093620;28;20138;-64
2022/12/05 03:22:34;;;;;;;;;;;18.80;41.10;;;;;;5108464;28;19997;-65
2022/12/05 03:25:04;;;;;;;;;;;18.80;41.00;;;;;;5094383;28;19946;-64
2022/12/05 03:27:31;;;;;;;;;;;18.80;41.00;;;;;;5094291;28;19967;-63
2022/12/05 03:30:00;;;;;;;;;;;18.80;41.00;;;;;;5092300;28;19923;-63
2022/12/05 03:32:28;;;;;;;;;;;18.80;41.00;;;;;;5090218;28;19959;-62
2022/12/05 03:34:58;;;;;;;;;;;18.80;41.00;;;;;;5090511;28;19935;-62
2022/12/05 03:37:26;;;;;;;;;;;18.80;41.10;;;;;;5093461;28;19928;-62
2022/12/05 03:39:58;;;;;;;;;;;18.80;41.00;;;;;;5092822;28;19927;-62
2022/12/05 03:42:27;;;;;;;;;;;18.80;41.10;;;;;;5092957;28;19977;-62
2022/12/05 03:44:54;;;;;;;;;;;18.80;41.10;;;;;;5094801;28;19923;-62
2022/12/05 03:47:21;;;;;;;;;;;18.80;41.00;;;;;;5112653;28;19924;-62
2022/12/05 03:49:49;;;;;;;;;;;18.80;41.00;;;;;;5112174;28;19927;-62
2022/12/05 03:52:16;;;;;;;;;;;18.80;41.00;;;;;;5092964;28;19927;-64
2022/12/05 03:54:43;;;;;;;;;;;18.80;41.60;;;;;;5094083;28;19928;-63
2022/12/05 03:57:12;;;;;;;;;;;18.80;41.00;;;;;;5093159;28;19923;-63
2022/12/05 03:59:40;;;;;;;;;;;18.80;41.10;;;;;;5110713;28;19923;-62
2022/12/05 04:02:07;;;;;;;;;;;18.80;41.10;;;;;;5093383;28;19927;-63
2022/12/05 04:04:35;;;;;;;;;;;18.80;41.00;;;;;;5092295;28;19924;-63
2022/12/05 04:07:02;;;;;;;;;;;18.80;41.00;;;;;;5092370;28;19981;-62
2022/12/05 04:09:29;;;;;;;;;;;18.80;41.00;;;;;;5111373;28;19919;-63
2022/12/05 04:12:01;;;;;;;;;;;18.80;41.00;;;;;;5091948;28;20426;-62
2022/12/05 04:14:30;;;;;;;;;;;18.80;41.00;;;;;;5110527;28;19923;-63
2022/12/05 04:17:04;;;;;;;;;;;18.80;41.10;;;;;;5090990;28;19923;-64
2022/12/05 04:21:36;;;;;;;;;;;18.80;41.00;;;;;;5110735;28;19927;-65
2022/12/05 04:22:18;;;;;;;;;;;18.80;41.10;;;;;;5088999;28;19920;-63
2022/12/05 04:27:29;;;;;;;;;;;18.80;41.10;;;;;;5086948;28;19931;-65
2022/12/05 04:30:00;;;;;;;;;;;18.80;41.10;;;;;;5093331;28;19928;-63
2022/12/05 04:32:28;;;;;;;;;;;18.80;41.10;;;;;;5091202;28;19953;-63
2022/12/05 04:34:55;;;;;;;;;;;18.80;41.10;;;;;;5091581;28;19920;-63
2022/12/05 04:37:22;;;;;;;;;;;18.80;41.10;;;;;;5110190;28;19926;-61
2022/12/05 04:39:50;;;;;;;;;;;18.80;41.10;;;;;;5090601;28;19932;-64
2022/12/05 04:42:18;;;;;;;;;;;18.80;41.10;;;;;;5090605;28;19928;-64
2022/12/05 04:44:47;;;;;;;;;;;18.80;41.10;;;;;;5092322;28;20123;-63
2022/12/05 04:47:16;;;;;;;;;;;18.80;41.10;;;;;;5091839;28;19949;-62
2022/12/05 04:49:43;;;;;;;;;;;18.80;41.10;;;;;;5110102;28;19919;-64
2022/12/05 04:52:10;;;;;;;;;;;18.80;41.00;;;;;;5108733;28;19944;-64
2022/12/05 04:54:37;;;;;;;;;;;18.80;41.10;;;;;;5091101;28;19928;-63
2022/12/05 04:57:05;;;;;;;;;;;18.80;41.10;;;;;;5109723;28;19927;-62
2022/12/05 04:59:31;;;;;;;;;;;18.80;41.10;;;;;;5089136;28;19930;-63
2022/12/05 05:02:00;;;;;;;;;;;18.80;41.00;;;;;;5087266;28;19920;-62
2022/12/05 05:04:29;;;;;;;;;;;18.80;41.10;;;;;;5109729;28;19949;-64
2022/12/05 05:06:56;;;;;;;;;;;18.80;41.10;;;;;;5091379;28;19924;-64
2022/12/05 05:09:22;;;;;;;;;;;18.80;41.10;;;;;;5107598;28;19988;-62
2022/12/05 05:11:49;;;;;;;;;;;18.80;41.10;;;;;;5109645;28;19928;-61
2022/12/05 05:14:16;;;;;;;;;;;18.80;41.20;;;;;;5091339;28;20011;-65
2022/12/05 05:16:43;;;;;;;;;;;18.80;41.10;;;;;;5090668;28;19923;-63
2022/12/05 05:19:10;;;;;;;;;;;18.80;41.10;;;;;;5090666;28;19947;-62
2022/12/05 05:21:39;;;;;;;;;;;18.80;41.10;;;;;;5091083;28;19949;-64
2022/12/05 05:24:06;;;;;;;;;;;18.80;41.10;;;;;;5090133;28;19926;-64
2022/12/05 05:26:33;;;;;;;;;;;18.80;41.10;;;;;;5089773;28;19920;-63
2022/12/05 05:29:00;;;;;;;;;;;18.80;41.10;;;;;;5087732;28;19992;-62
2022/12/05 05:31:27;;;;;;;;;;;18.80;41.10;;;;;;5109002;28;19919;-61
2022/12/05 05:33:54;;;;;;;;;;;18.80;41.10;;;;;;5090368;28;19920;-64
2022/12/05 05:36:21;;;;;;;;;;;18.80;41.10;;;;;;5105195;28;19930;-62
2022/12/05 05:38:50;;;;;;;;;;;18.80;41.10;;;;;;5090425;28;19927;-63
2022/12/05 05:41:17;;;;;;;;;;;18.80;41.10;;;;;;5091292;28;19942;-62
2022/12/05 05:43:44;;;;;;;;;;;18.80;41.10;;;;;;5091515;28;19927;-62
2022/12/05 05:46:10;;;;;;;;;;;18.80;41.10;;;;;;5090495;28;20169;-62
2022/12/05 05:48:37;;;;;;;;;;;18.80;41.10;;;;;;5106236;28;19931;-63
2022/12/05 05:51:04;;;;;;;;;;;18.80;41.10;;;;;;5109260;28;19920;-62
2022/12/05 05:53:31;;;;;;;;;;;18.80;41.10;;;;;;5090731;28;20405;-67
2022/12/05 05:56:01;;;;;;;;;;;18.80;41.10;;;;;;5104968;28;19920;-61
2022/12/05 05:58:28;;;;;;;;;;;18.80;41.10;;;;;;5086056;28;19993;-66
2022/12/05 06:00:55;;;;;;;;;;;18.80;41.10;;;;;;5106022;28;19940;-63
2022/12/05 06:03:21;;;;;;;;;;;18.80;41.10;;;;;;5090973;28;19920;-63
2022/12/05 06:05:56;;;;;;;;;;;18.80;41.10;;;;;;5090844;28;20357;-62
2022/12/05 06:08:22;;;;;;;;;;;18.80;41.10;;;;;;5090681;28;19932;-66
2022/12/05 06:10:49;;;;;;;;;;;18.80;41.10;;;;;;5092699;28;20393;-64
2022/12/05 06:13:17;;;;;;;;;;;18.80;41.10;;;;;;5110979;28;19993;-62
2022/12/05 06:15:46;;;;;;;;;;;18.80;41.10;;;;;;5110293;28;19920;-62
2022/12/05 06:18:13;;;;;;;;;;;18.80;41.10;;;;;;5094467;28;19923;-62
2022/12/05 06:20:40;;;;;;;;;;;18.80;41.10;;;;;;5092454;28;19924;-63
2022/12/05 06:23:07;;;;;;;;;;;18.80;41.10;;;;;;5091126;28;19954;-62
2022/12/05 06:25:34;;;;;;;;;;;18.80;41.10;;;;;;5094316;28;19919;-66
2022/12/05 06:28:00;;;;;;;;;;;18.80;41.10;;;;;;5094642;28;20278;-62
2022/12/05 06:30:29;;;;;;;;;;;18.80;41.10;;;;;;5111868;28;19927;-62
2022/12/05 06:32:55;;;;;;;;;;;18.80;41.10;;;;;;5094035;28;19932;-62
2022/12/05 06:35:22;;;;;;;;;;;18.80;41.10;;;;;;5094707;28;19955;-64
2022/12/05 06:37:49;;;;;;;;;;;18.80;41.10;;;;;;5094044;28;20001;-63
2022/12/05 06:40:16;;;;;;;;;;;18.80;41.10;;;;;;5093597;28;19931;-65
2022/12/05 06:42:42;;;;;;;;;;;18.80;41.10;;;;;;5094404;28;19924;-64
2022/12/05 06:45:10;;;;;;;;;;;18.80;41.10;;;;;;5111369;28;19920;-63
2022/12/05 06:47:38;;;;;;;;;;;18.80;41.10;;;;;;5112540;28;19920;-63
2022/12/05 06:50:05;;;;;;;;;;;18.80;41.10;;;;;;5093304;28;19923;-63
2022/12/05 06:52:32;;;;;;;;;;;18.80;41.10;;;;;;5093577;28;19923;-62
2022/12/05 06:54:59;;;;;;;;;;;18.80;41.10;;;;;;5094096;28;19924;-65
2022/12/05 06:57:27;;;;;;;;;;;18.80;41.10;;;;;;5091208;28;19971;-63
2022/12/05 07:01:37;;;;;;;;;;;18.80;41.10;;;;;;5090438;28;19920;-62
2022/12/05 07:02:41;;;;;;;;;;;18.80;41.10;;;;;;5093936;28;19920;-64
2022/12/05 07:05:08;;;;;;;;;;;18.80;41.10;;;;;;5094151;28;19927;-65
2022/12/05 07:07:35;;;;;;;;;;;18.80;41.10;;;;;;5092117;28;20364;-64
2022/12/05 07:10:04;;;;;;;;;;;18.80;41.10;;;;;;5092753;28;20389;-63
2022/12/05 07:12:33;;;;;;;;;;;18.80;41.10;;;;;;5111987;28;20254;-63
2022/12/05 07:15:00;;;;;;;;;;;18.80;41.10;;;;;;5092842;28;19948;-64
2022/12/05 07:17:29;;;;;;;;;;;18.80;41.70;;;;;;5110995;28;19920;-63
2022/12/05 07:19:57;;;;;;;;;;;18.80;41.10;;;;;;5091013;28;20369;-62
2022/12/05 07:22:24;;;;;;;;;;;18.80;41.10;;;;;;5092802;28;19927;-62
2022/12/05 07:24:51;;;;;;;;;;;18.80;41.10;;;;;;5112429;28;20389;-62
2022/12/05 07:27:17;;;;;;;;;;;18.80;41.10;;;;;;5111821;28;19927;-64
2022/12/05 07:29:44;;;;;;;;;;;18.80;41.10;;;;;;5111205;28;19927;-63
2022/12/05 07:32:11;;;;;;;;;;;18.80;41.10;;;;;;5092346;28;20375;-62
2022/12/05 07:34:38;;;;;;;;;;;18.80;41.10;;;;;;5092354;28;19935;-63
2022/12/05 07:37:07;;;;;;;;;;;18.80;41.10;;;;;;5093242;28;19920;-61
2022/12/05 07:39:33;;;;;;;;;;;18.80;41.10;;;;;;5090454;28;20377;-62
2022/12/05 07:42:00;;;;;;;;;;;18.80;41.10;;;;;;5111513;28;19946;-63
2022/12/05 07:44:27;;;;;;;;;;;18.80;41.10;;;;;;5082580;28;19920;-64
2022/12/05 07:46:54;;;;;;;;;;;18.80;41.10;;;;;;5085702;28;19923;-63
2022/12/05 07:49:20;;;;;;;;;;;18.80;41.10;;;;;;5088725;28;19924;-63
2022/12/05 07:51:47;;;;;;;;;;;18.80;41.10;;;;;;5091196;28;19920;-62
2022/12/05 07:54:15;;;;;;;;;;;18.80;41.10;;;;;;5100715;28;20411;-63
2022/12/05 07:56:42;;;;;;;;;;;18.80;41.10;;;;;;5073223;28;20625;-61
2022/12/05 07:59:09;;;;;;;;;;;18.80;41.10;;;;;;5091655;28;19919;-64
2022/12/05 08:01:37;;;;;;;;;;;18.80;41.10;;;;;;5099879;28;19924;-64
2022/12/05 08:04:04;;;;;;;;;;;18.80;41.00;;;;;;5079674;28;19928;-62
2022/12/05 08:06:31;;;;;;;;;;;18.80;40.90;;;;;;5095007;28;19932;-61
2022/12/05 08:09:00;;;;;;;;;;;18.80;40.70;;;;;;5081334;28;19997;-61
2022/12/05 08:11:28;;;;;;;;;;;18.80;40.50;;;;;;5098646;27;19924;-62
2022/12/05 08:13:55;;;;;;;;;;;18.80;40.60;;;;;;5086196;28;19924;-62
2022/12/05 08:16:22;;;;;;;;;;;18.80;40.70;;;;;;5090035;28;20336;-63
2022/12/05 08:18:49;;;;;;;;;;;18.80;40.80;;;;;;5081283;28;19924;-62
2022/12/05 08:21:17;;;;;;;;;;;18.80;40.80;;;;;;5075443;28;19939;-62
2022/12/05 08:23:43;;;;;;;;;;;18.80;40.90;;;;;;5071606;28;19932;-63
2022/12/05 08:26:11;;;;;;;;;;;18.80;40.90;;;;;;5089053;28;19924;-64
2022/12/05 08:28:39;;;;;;;;;;;18.80;40.90;;;;;;5096205;28;19926;-64
2022/12/05 08:31:06;;;;;;;;;;;18.80;41.00;;;;;;5074929;28;19932;-62
2022/12/05 08:33:33;;;;;;;;;;;18.80;41.00;;;;;;5070408;28;19977;-63
2022/12/05 08:36:00;;;;;;;;;;;18.80;41.10;;;;;;5076485;28;19936;-61
2022/12/05 08:38:27;;;;;;;;;;;18.80;41.00;;;;;;5100369;28;19927;-62
2022/12/05 08:40:54;;;;;;;;;;;18.80;41.10;;;;;;5101081;28;19931;-62
2022/12/05 08:43:20;;;;;;;;;;;18.80;41.10;;;;;;5093101;28;19927;-62
2022/12/05 08:45:51;;;;;;;;;;;18.80;41.10;;;;;;5078864;28;19927;-62
2022/12/05 08:48:17;;;;;;;;;;;18.80;41.10;;;;;;5071152;28;20018;-63
2022/12/05 08:50:44;;;;;;;;;;;18.80;41.20;;;;;;5086537;28;19969;-62
2022/12/05 08:53:11;;;;;;;;;;;18.80;41.20;;;;;;5077673;28;19920;-62
2022/12/05 08:55:38;;;;;;;;;;;18.80;41.10;;;;;;5096936;28;19920;-62
2022/12/05 08:58:04;;;;;;;;;;;18.80;41.20;;;;;;5082397;28;19973;-61
2022/12/05 09:00:31;;;;;;;;;;;18.90;41.30;;;;;;5086019;28;19981;-61
2022/12/05 09:02:59;;;;;;;;;;;18.90;41.30;;;;;;5099122;27;19969;-61
2022/12/05 09:05:26;;;;;;;;;;;18.90;41.40;;;;;;5077141;28;20374;-62
2022/12/05 09:07:53;;;;;;;;;;;18.90;41.40;;;;;;5092657;28;19924;-63
2022/12/05 09:10:20;;;;;;;;;;;18.90;41.40;;;;;;5094852;28;19920;-66
2022/12/05 09:12:49;;;;;;;;;;;18.90;41.40;;;;;;5084379;28;19920;-61
2022/12/05 09:15:16;;;;;;;;;;;18.90;41.40;;;;;;5084840;28;19988;-62
2022/12/05 09:17:43;;;;;;;;;;;18.90;41.50;;;;;;5087958;28;19920;-61
2022/12/05 09:20:12;;;;;;;;;;;18.90;41.50;;;;;;5108977;28;19927;-62
2022/12/05 09:22:39;;;;;;;;;;;18.90;42.00;;;;;;5088584;28;19926;-62
2022/12/05 09:25:06;;;;;;;;;;;18.90;41.50;;;;;;5090616;28;20353;-61
2022/12/05 09:27:33;;;;;;;;;;;19.00;41.50;;;;;;5091826;28;19927;-64
2022/12/05 09:30:00;;;;;;;;;;;19.00;41.50;;;;;;5105249;28;19924;-61
2022/12/05 09:32:27;;;;;;;;;;;19.00;41.50;;;;;;5086137;28;19969;-62
2022/12/05 09:34:54;;;;;;;;;;;19.00;41.60;;;;;;5106053;28;19955;-66
2022/12/05 09:37:22;;;;;;;;;;;19.00;41.60;;;;;;5105333;28;20027;-61
2022/12/05 09:39:49;;;;;;;;;;;19.00;41.60;;;;;;5092019;28;19927;-62
2022/12/05 09:42:19;;;;;;;;;;;19.00;41.60;;;;;;5109521;28;19920;-62
2022/12/05 09:44:49;;;;;;;;;;;19.00;41.60;;;;;;5093455;27;19920;-62
2022/12/05 09:47:20;;;;;;;;;;;19.00;41.60;;;;;;5099023;27;19945;-61
2022/12/05 09:49:50;;;;;;;;;;;19.00;41.60;;;;;;5093868;28;19926;-62
2022/12/05 09:52:18;;;;;;;;;;;19.00;41.70;;;;;;5096621;28;19926;-62
2022/12/05 09:54:46;;;;;;;;;;;19.00;41.70;;;;;;5101832;28;19940;-62
2022/12/05 09:57:13;;;;;;;;;;;19.00;41.70;;;;;;5119135;27;19946;-62
2022/12/05 09:59:40;;;;;;;;;;;19.00;41.70;;;;;;5095698;28;19920;-62
2022/12/05 10:02:11;;;;;;;;;;;19.00;41.70;;;;;;5093165;28;19927;-62
2022/12/05 10:04:48;;;;;;;;;;;19.00;41.70;;;;;;5116172;28;19926;-61
2022/12/05 10:07:16;;;;;;;;;;;19.10;41.80;;;;;;5092616;28;19920;-62
2022/12/05 10:09:56;;;;;;;;;;;19.10;41.80;;;;;;5089612;28;19927;-62
2022/12/05 10:12:31;;;;;;;;;;;19.10;41.80;;;;;;5096140;28;20360;-62
2022/12/05 10:14:59;;;;;;;;;;;19.10;41.90;;;;;;5097028;28;19920;-61
2022/12/05 10:17:26;;;;;;;;;;;19.10;41.90;;;;;;5091642;28;19924;-62
2022/12/05 10:19:53;;;;;;;;;;;19.10;41.90;;;;;;5094107;28;19924;-63
2022/12/05 10:22:22;;;;;;;;;;;19.10;41.90;;;;;;5096299;28;19926;-67
2022/12/05 10:24:50;;;;;;;;;;;19.10;41.90;;;;;;5098463;28;19920;-65
2022/12/05 10:27:19;;;;;;;;;;;19.10;41.90;;;;;;5094221;28;19931;-65
2022/12/05 10:29:48;;;;;;;;;;;19.10;41.90;;;;;;5085333;28;19970;-65
2022/12/05 10:32:15;;;;;;;;;;;19.10;41.80;;;;;;5096769;28;19941;-65
2022/12/05 10:34:42;;;;;;;;;;;19.10;41.80;;;;;;5093689;28;19973;-65
2022/12/05 10:37:10;;;;;;;;;;;19.10;41.80;;;;;;5092242;28;19920;-66
2022/12/05 10:39:37;;;;;;;;;;;19.10;41.80;;;;;;5093017;28;19926;-66
2022/12/05 10:42:03;;;;;;;;;;;19.10;41.80;;;;;;5083440;28;20637;-65
2022/12/05 10:44:32;;;;;;;;;;;19.10;41.80;;;;;;5112589;27;20357;-63
2022/12/05 10:47:00;;;;;;;;;;;19.10;41.80;;;;;;5102117;28;19969;-64
2022/12/05 10:49:27;;;;;;;;;;;19.10;41.80;;;;;;5100914;28;19923;-64
2022/12/05 10:51:53;;;;;;;;;;;19.10;41.80;;;;;;5093170;27;19928;-63
2022/12/05 10:54:22;;;;;;;;;;;19.10;41.90;;;;;;5106199;27;19920;-64
2022/12/05 10:56:49;;;;;;;;;;;19.10;41.90;;;;;;5089850;28;19969;-62
2022/12/05 10:59:16;;;;;;;;;;;19.10;41.90;;;;;;5111902;28;19919;-63
2022/12/05 11:01:45;;;;;;;;;;;19.10;41.90;;;;;;5092516;28;19920;-70
2022/12/05 11:04:18;;;;;;;;;;;19.10;41.90;;;;;;5092098;28;19965;-62
2022/12/05 11:06:49;;;;;;;;;;;19.10;42.50;;;;;;5109470;28;19920;-62
2022/12/05 11:09:17;;;;;;;;;;;19.10;41.90;;;;;;5111931;28;19949;-62
2022/12/05 11:11:43;;;;;;;;;;;19.10;41.90;;;;;;5111288;28;19923;-63
2022/12/05 11:14:20;;;;;;;;;;;19.10;41.90;;;;;;5093316;28;19920;-65
2022/12/05 11:16:52;;;;;;;;;;;19.10;41.90;;;;;;5089343;28;19923;-63
2022/12/05 11:19:23;;;;;;;;;;;19.10;41.90;;;;;;5097449;28;19926;-66
2022/12/05 11:21:50;;;;;;;;;;;19.10;41.90;;;;;;5093523;28;20419;-64
2022/12/05 11:24:21;;;;;;;;;;;19.10;41.90;;;;;;5093643;28;20366;-64
2022/12/05 11:26:47;;;;;;;;;;;19.10;41.90;;;;;;5095680;28;19923;-66
2022/12/05 11:29:27;;;;;;;;;;;19.10;42.00;;;;;;5094629;28;19920;-64
2022/12/05 11:31:56;;;;;;;;;;;19.10;42.00;;;;;;5090466;28;19939;-66
2022/12/05 11:34:23;;;;;;;;;;;19.10;42.00;;;;;;5090466;28;20004;-64
2022/12/05 11:36:50;;;;;;;;;;;19.20;42.10;;;;;;5090101;28;20011;-63
2022/12/05 11:39:17;;;;;;;;;;;19.20;42.10;;;;;;5088611;28;19963;-62
2022/12/05 11:41:51;;;;;;;;;;;19.20;42.20;;;;;;5092575;28;19923;-63
2022/12/05 11:44:25;;;;;;;;;;;19.20;42.10;;;;;;5092214;28;19924;-63
2022/12/05 11:46:54;;;;;;;;;;;19.20;42.10;;;;;;5095109;28;20419;-63
2022/12/05 11:49:27;;;;;;;;;;;19.20;42.20;;;;;;5094037;28;19920;-63
2022/12/05 11:51:56;;;;;;;;;;;19.20;42.20;;;;;;5073489;28;19932;-63
2022/12/05 11:54:28;;;;;;;;;;;19.20;42.20;;;;;;5093344;28;19924;-63
2022/12/05 11:56:57;;;;;;;;;;;19.20;42.10;;;;;;5092360;28;19977;-62
2022/12/05 11:59:30;;;;;;;;;;;19.20;42.20;;;;;;5091117;28;19920;-62
2022/12/05 12:01:58;;;;;;;;;;;19.20;42.20;;;;;;5087210;28;19964;-62
2022/12/05 12:04:30;;;;;;;;;;;19.20;42.20;;;;;;5090557;28;19924;-62
2022/12/05 12:07:01;;;;;;;;;;;19.20;42.20;;;;;;5088745;28;19919;-63
2022/12/05 12:09:34;;;;;;;;;;;19.20;42.20;;;;;;5089401;28;20426;-63
2022/12/05 12:12:03;;;;;;;;;;;19.20;42.20;;;;;;5094858;28;19920;-62
2022/12/05 12:14:31;;;;;;;;;;;19.20;42.20;;;;;;5111034;28;19931;-65
2022/12/05 12:17:02;;;;;;;;;;;19.20;42.30;;;;;;5088063;28;19938;-64
2022/12/05 12:19:47;;;;;;;;;;;19.20;42.30;;;;;;5088924;28;19969;-64
2022/12/05 12:22:19;;;;;;;;;;;19.20;42.30;;;;;;5086014;28;19927;-65
2022/12/05 12:24:51;;;;;;;;;;;19.20;42.30;;;;;;5092363;28;19920;-64
2022/12/05 12:27:22;;;;;;;;;;;19.20;42.30;;;;;;5093644;28;19926;-61
2022/12/05 12:29:52;;;;;;;;;;;19.20;42.20;;;;;;5084564;28;19920;-61
2022/12/05 12:32:23;;;;;;;;;;;19.20;38.60;;;;;;5095152;28;19921;-64
2022/12/05 12:34:58;;;;;;;;;;;19.10;36.40;;;;;;5077316;28;19927;-66
2022/12/05 12:37:27;;;;;;;;;;;18.90;37.50;;;;;;5080780;28;19923;-69
2022/12/05 12:39:56;;;;;;;;;;;18.90;38.30;;;;;;5090546;28;19927;-66
2022/12/05 12:42:24;;;;;;;;;;;18.80;38.80;;;;;;5081711;28;19924;-65
2022/12/05 12:44:59;;;;;;;;;;;18.80;39.40;;;;;;5090381;28;20362;-66
2022/12/05 12:47:28;;;;;;;;;;;18.80;39.80;;;;;;5083340;28;20005;-67
2022/12/05 12:49:58;;;;;;;;;;;18.80;40.10;;;;;;5084292;28;20325;-67
2022/12/05 12:52:28;;;;;;;;;;;18.80;40.30;;;;;;5084084;28;19927;-66
2022/12/05 12:55:01;;;;;;;;;;;18.80;40.60;;;;;;5079580;28;19920;-66
2022/12/05 12:57:29;;;;;;;;;;;18.90;40.90;;;;;;5087786;28;20277;-69
2022/12/05 13:00:00;;;;;;;;;;;18.90;41.10;;;;;;5083054;28;20378;-66
2022/12/05 13:02:28;;;;;;;;;;;18.90;41.30;;;;;;5086206;28;19924;-66
2022/12/05 13:04:57;;;;;;;;;;;18.90;41.40;;;;;;5087154;28;19924;-67
2022/12/05 13:07:25;;;;;;;;;;;19.00;41.60;;;;;;5096218;28;19972;-66
2022/12/05 13:09:53;;;;;;;;;;;19.00;41.70;;;;;;5091924;28;19927;-67
2022/12/05 13:12:21;;;;;;;;;;;19.00;41.70;;;;;;5088783;28;19927;-64
2022/12/05 13:14:49;;;;;;;;;;;19.00;41.80;;;;;;5089472;28;19974;-64
2022/12/05 13:17:17;;;;;;;;;;;19.00;41.90;;;;;;5093792;28;20234;-64
2022/12/05 13:19:45;;;;;;;;;;;19.10;41.90;;;;;;5093847;28;19920;-66
2022/12/05 13:22:12;;;;;;;;;;;19.10;41.90;;;;;;5092985;28;19973;-63
2022/12/05 13:24:38;;;;;;;;;;;19.10;41.90;;;;;;5098248;28;19942;-65
2022/12/05 13:27:07;;;;;;;;;;;19.10;41.90;;;;;;5094467;28;19924;-65
2022/12/05 13:29:34;;;;;;;;;;;19.10;42.00;;;;;;5087269;28;20323;-71
2022/12/05 13:32:01;;;;;;;;;;;19.10;42.00;;;;;;5081219;28;19920;-70
2022/12/05 13:34:45;;;;;;;;;;;19.10;42.00;;;;;;5109231;28;19926;-64
2022/12/05 13:42:45;;;;;;;;;;;19.10;42.10;;;;;;5088980;28;19928;-66
2022/12/05 13:45:15;;;;;;;;;;;19.10;42.10;;;;;;5091125;28;19920;-66
2022/12/05 13:47:46;;;;;;;;;;;19.10;42.10;;;;;;5089251;28;19924;-66
2022/12/05 13:50:14;;;;;;;;;;;19.10;42.10;;;;;;5089480;28;19924;-67
2022/12/05 13:52:41;;;;;;;;;;;19.20;42.20;;;;;;5091239;28;19924;-68
2022/12/05 13:55:20;;;;;;;;;;;19.20;42.20;;;;;;5093207;28;19920;-68
2022/12/05 13:57:49;;;;;;;;;;;19.20;42.20;;;;;;5079923;28;19924;-67
2022/12/05 14:00:26;;;;;;;;;;;19.20;42.20;;;;;;5106508;28;19931;-66
2022/12/05 14:02:53;;;;;;;;;;;19.20;42.20;;;;;;5081102;28;19920;-66
2022/12/05 14:05:36;;;;;;;;;;;19.20;42.20;;;;;;5086485;28;19977;-66
2022/12/05 14:08:18;;;;;;;;;;;19.20;42.30;;;;;;5104435;28;19946;-68
2022/12/05 14:11:04;;;;;;;;;;;19.20;42.20;;;;;;5083128;28;20380;-67
2022/12/05 14:13:51;;;;;;;;;;;19.20;42.20;;;;;;5107291;28;19987;-68
2022/12/05 14:16:45;;;;;;;;;;;19.20;42.20;;;;;;5086905;28;19919;-66
2022/12/05 14:19:29;;;;;;;;;;;19.20;42.30;;;;;;5092396;28;19920;-67
2022/12/05 14:21:58;;;;;;;;;;;19.20;42.30;;;;;;5052474;28;19923;-67
2022/12/05 14:24:26;;;;;;;;;;;19.20;42.30;;;;;;5089184;28;19920;-64
2022/12/05 14:26:55;;;;;;;;;;;19.20;42.40;;;;;;5086702;28;20365;-68
2022/12/05 14:29:30;;;;;;;;;;;19.20;42.30;;;;;;5083485;28;19924;-68
2022/12/05 14:32:01;;;;;;;;;;;19.20;42.40;;;;;;5113157;28;19928;-67